sensor_id;sensor_type;location;lat;lon;timestamp;P1;durP1;ratioP1;P2;durP2;ratioP2
55933;SDS011;41839;41.386;2.082;2022-07-29T00:01:44;3.60;;;3.20;;
55933;SDS011;41839;41.386;2.082;2022-07-29T00:04:10;5.07;;;3.72;;
55933;SDS011;41839;41.386;2.082;2022-07-29T00:06:35;7.50;;;4.00;;
55933;SDS011;41839;41.386;2.082;2022-07-29T00:09:01;7.10;;;4.43;;
55933;SDS011;41839;41.386;2.082;2022-07-29T00:11:47;6.93;;;3.67;;
55933;SDS011;41839;41.386;2.082;2022-07-29T00:14:13;3.55;;;3.05;;
55933;SDS011;41839;41.386;2.082;2022-07-29T00:16:39;9.10;;;3.72;;
55933;SDS011;41839;41.386;2.082;2022-07-29T00:20:56;8.77;;;3.63;;
55933;SDS011;41839;41.386;2.082;2022-07-29T00:23:22;5.95;;;4.88;;
55933;SDS011;41839;41.386;2.082;2022-07-29T00:25:47;5.25;;;2.83;;
55933;SDS011;41839;41.386;2.082;2022-07-29T00:28:12;4.18;;;3.80;;
55933;SDS011;41839;41.386;2.082;2022-07-29T00:30:38;4.40;;;3.95;;
55933;SDS011;41839;41.386;2.082;2022-07-29T00:34:55;7.18;;;5.22;;
55933;SDS011;41839;41.386;2.082;2022-07-29T00:37:39;9.38;;;4.03;;
55933;SDS011;41839;41.386;2.082;2022-07-29T00:40:05;8.57;;;4.15;;
55933;SDS011;41839;41.386;2.082;2022-07-29T00:43:29;5.45;;;4.13;;
55933;SDS011;41839;41.386;2.082;2022-07-29T00:45:55;9.52;;;4.68;;
55933;SDS011;41839;41.386;2.082;2022-07-29T00:48:20;5.03;;;4.50;;
55933;SDS011;41839;41.386;2.082;2022-07-29T00:50:46;8.18;;;5.65;;
55933;SDS011;41839;41.386;2.082;2022-07-29T00:53:14;5.80;;;4.18;;
55933;SDS011;41839;41.386;2.082;2022-07-29T00:56:18;10.07;;;3.63;;
55933;SDS011;41839;41.386;2.082;2022-07-29T00:58:44;7.70;;;4.53;;
55933;SDS011;41839;41.386;2.082;2022-07-29T01:01:12;4.53;;;3.55;;
55933;SDS011;41839;41.386;2.082;2022-07-29T01:03:37;8.60;;;4.75;;
55933;SDS011;41839;41.386;2.082;2022-07-29T01:06:03;9.30;;;3.67;;
55933;SDS011;41839;41.386;2.082;2022-07-29T01:08:29;4.35;;;3.95;;
55933;SDS011;41839;41.386;2.082;2022-07-29T01:10:56;4.25;;;3.85;;
55933;SDS011;41839;41.386;2.082;2022-07-29T01:13:22;7.07;;;3.92;;
55933;SDS011;41839;41.386;2.082;2022-07-29T01:18:22;7.78;;;3.55;;
55933;SDS011;41839;41.386;2.082;2022-07-29T01:30:48;6.03;;;3.58;;
55933;SDS011;41839;41.386;2.082;2022-07-29T01:33:17;4.25;;;3.40;;
55933;SDS011;41839;41.386;2.082;2022-07-29T01:36:07;9.07;;;4.80;;
55933;SDS011;41839;41.386;2.082;2022-07-29T01:38:38;6.10;;;3.53;;
55933;SDS011;41839;41.386;2.082;2022-07-29T01:41:08;4.47;;;3.63;;
55933;SDS011;41839;41.386;2.082;2022-07-29T01:43:38;3.97;;;3.63;;
55933;SDS011;41839;41.386;2.082;2022-07-29T01:46:09;4.30;;;3.78;;
55933;SDS011;41839;41.386;2.082;2022-07-29T01:48:45;6.93;;;3.85;;
55933;SDS011;41839;41.386;2.082;2022-07-29T01:51:19;9.30;;;3.55;;
55933;SDS011;41839;41.386;2.082;2022-07-29T01:53:54;8.85;;;3.97;;
55933;SDS011;41839;41.386;2.082;2022-07-29T01:56:24;5.85;;;4.60;;
55933;SDS011;41839;41.386;2.082;2022-07-29T01:58:56;3.97;;;3.42;;
55933;SDS011;41839;41.386;2.082;2022-07-29T02:02:28;4.03;;;3.67;;
55933;SDS011;41839;41.386;2.082;2022-07-29T02:04:57;7.93;;;3.60;;
55933;SDS011;41839;41.386;2.082;2022-07-29T02:09:16;8.13;;;4.95;;
55933;SDS011;41839;41.386;2.082;2022-07-29T02:11:47;6.05;;;3.42;;
55933;SDS011;41839;41.386;2.082;2022-07-29T02:14:17;4.65;;;3.70;;
55933;SDS011;41839;41.386;2.082;2022-07-29T02:16:44;9.23;;;4.70;;
55933;SDS011;41839;41.386;2.082;2022-07-29T02:19:12;8.15;;;3.83;;
55933;SDS011;41839;41.386;2.082;2022-07-29T02:21:39;10.18;;;4.07;;
55933;SDS011;41839;41.386;2.082;2022-07-29T02:24:05;6.22;;;4.32;;
55933;SDS011;41839;41.386;2.082;2022-07-29T02:28:00;4.40;;;4.00;;
55933;SDS011;41839;41.386;2.082;2022-07-29T02:30:39;6.93;;;3.65;;
55933;SDS011;41839;41.386;2.082;2022-07-29T02:33:07;6.43;;;4.45;;
55933;SDS011;41839;41.386;2.082;2022-07-29T02:35:34;4.25;;;3.85;;
55933;SDS011;41839;41.386;2.082;2022-07-29T02:38:01;3.78;;;3.05;;
55933;SDS011;41839;41.386;2.082;2022-07-29T02:40:46;4.60;;;3.65;;
55933;SDS011;41839;41.386;2.082;2022-07-29T02:43:13;5.05;;;4.63;;
55933;SDS011;41839;41.386;2.082;2022-07-29T02:45:39;4.55;;;3.30;;
55933;SDS011;41839;41.386;2.082;2022-07-29T02:48:05;5.32;;;4.63;;
55933;SDS011;41839;41.386;2.082;2022-07-29T02:50:38;7.18;;;3.08;;
55933;SDS011;41839;41.386;2.082;2022-07-29T02:53:15;4.63;;;3.13;;
55933;SDS011;41839;41.386;2.082;2022-07-29T02:56:56;4.20;;;3.85;;
55933;SDS011;41839;41.386;2.082;2022-07-29T03:01:38;8.10;;;4.40;;
55933;SDS011;41839;41.386;2.082;2022-07-29T03:04:06;9.25;;;3.83;;
55933;SDS011;41839;41.386;2.082;2022-07-29T03:06:34;4.70;;;3.80;;
55933;SDS011;41839;41.386;2.082;2022-07-29T03:09:02;5.35;;;3.40;;
55933;SDS011;41839;41.386;2.082;2022-07-29T03:11:28;6.47;;;3.40;;
55933;SDS011;41839;41.386;2.082;2022-07-29T03:13:55;5.80;;;4.85;;
55933;SDS011;41839;41.386;2.082;2022-07-29T03:16:21;5.63;;;4.35;;
55933;SDS011;41839;41.386;2.082;2022-07-29T03:18:48;9.50;;;6.65;;
55933;SDS011;41839;41.386;2.082;2022-07-29T03:23:44;5.03;;;3.78;;
55933;SDS011;41839;41.386;2.082;2022-07-29T03:26:10;8.00;;;3.80;;
55933;SDS011;41839;41.386;2.082;2022-07-29T03:30:49;4.05;;;3.65;;
55933;SDS011;41839;41.386;2.082;2022-07-29T03:33:15;7.80;;;3.58;;
55933;SDS011;41839;41.386;2.082;2022-07-29T03:35:41;3.83;;;3.55;;
55933;SDS011;41839;41.386;2.082;2022-07-29T03:38:07;5.95;;;4.03;;
55933;SDS011;41839;41.386;2.082;2022-07-29T03:40:33;7.75;;;3.53;;
55933;SDS011;41839;41.386;2.082;2022-07-29T03:43:07;4.88;;;4.03;;
55933;SDS011;41839;41.386;2.082;2022-07-29T03:47:34;8.18;;;3.92;;
55933;SDS011;41839;41.386;2.082;2022-07-29T03:50:05;4.88;;;4.07;;
55933;SDS011;41839;41.386;2.082;2022-07-29T03:52:32;8.05;;;4.50;;
55933;SDS011;41839;41.386;2.082;2022-07-29T03:56:57;7.28;;;4.13;;
55933;SDS011;41839;41.386;2.082;2022-07-29T03:59:26;6.95;;;4.80;;
55933;SDS011;41839;41.386;2.082;2022-07-29T04:01:52;11.70;;;4.80;;
55933;SDS011;41839;41.386;2.082;2022-07-29T04:04:21;11.45;;;4.32;;
55933;SDS011;41839;41.386;2.082;2022-07-29T04:06:46;5.00;;;3.60;;
55933;SDS011;41839;41.386;2.082;2022-07-29T04:09:12;8.65;;;4.72;;
55933;SDS011;41839;41.386;2.082;2022-07-29T04:11:39;4.35;;;4.05;;
55933;SDS011;41839;41.386;2.082;2022-07-29T04:14:05;6.45;;;3.97;;
55933;SDS011;41839;41.386;2.082;2022-07-29T04:17:46;12.45;;;5.10;;
55933;SDS011;41839;41.386;2.082;2022-07-29T04:20:11;8.68;;;4.25;;
55933;SDS011;41839;41.386;2.082;2022-07-29T04:22:38;6.03;;;4.82;;
55933;SDS011;41839;41.386;2.082;2022-07-29T04:25:04;4.57;;;3.95;;
55933;SDS011;41839;41.386;2.082;2022-07-29T04:27:30;6.03;;;3.67;;
55933;SDS011;41839;41.386;2.082;2022-07-29T04:29:56;13.45;;;4.25;;
55933;SDS011;41839;41.386;2.082;2022-07-29T04:32:21;7.55;;;4.65;;
55933;SDS011;41839;41.386;2.082;2022-07-29T04:34:47;5.68;;;4.53;;
55933;SDS011;41839;41.386;2.082;2022-07-29T04:37:12;7.15;;;4.00;;
55933;SDS011;41839;41.386;2.082;2022-07-29T04:41:06;4.80;;;4.40;;
55933;SDS011;41839;41.386;2.082;2022-07-29T04:43:33;5.60;;;4.38;;
55933;SDS011;41839;41.386;2.082;2022-07-29T04:45:59;11.73;;;5.40;;
55933;SDS011;41839;41.386;2.082;2022-07-29T04:48:25;6.55;;;4.32;;
55933;SDS011;41839;41.386;2.082;2022-07-29T04:50:51;6.47;;;4.53;;
55933;SDS011;41839;41.386;2.082;2022-07-29T04:53:17;8.30;;;4.80;;
55933;SDS011;41839;41.386;2.082;2022-07-29T04:55:42;5.28;;;4.03;;
55933;SDS011;41839;41.386;2.082;2022-07-29T04:58:08;5.57;;;4.20;;
55933;SDS011;41839;41.386;2.082;2022-07-29T05:00:33;6.15;;;4.22;;
55933;SDS011;41839;41.386;2.082;2022-07-29T05:04:09;10.82;;;5.88;;
55933;SDS011;41839;41.386;2.082;2022-07-29T05:06:35;5.50;;;4.55;;
55933;SDS011;41839;41.386;2.082;2022-07-29T05:09:00;7.22;;;4.85;;
55933;SDS011;41839;41.386;2.082;2022-07-29T05:11:26;7.85;;;5.18;;
55933;SDS011;41839;41.386;2.082;2022-07-29T05:13:51;5.13;;;4.25;;
55933;SDS011;41839;41.386;2.082;2022-07-29T05:16:16;6.93;;;3.58;;
55933;SDS011;41839;41.386;2.082;2022-07-29T05:18:42;10.20;;;5.65;;
55933;SDS011;41839;41.386;2.082;2022-07-29T05:21:07;8.52;;;4.95;;
55933;SDS011;41839;41.386;2.082;2022-07-29T05:23:33;7.13;;;4.82;;
55933;SDS011;41839;41.386;2.082;2022-07-29T05:25:58;4.45;;;3.97;;
55933;SDS011;41839;41.386;2.082;2022-07-29T05:28:24;5.63;;;4.05;;
55933;SDS011;41839;41.386;2.082;2022-07-29T05:30:49;7.25;;;4.32;;
55933;SDS011;41839;41.386;2.082;2022-07-29T05:33:14;10.27;;;4.40;;
55933;SDS011;41839;41.386;2.082;2022-07-29T05:35:40;5.65;;;4.30;;
55933;SDS011;41839;41.386;2.082;2022-07-29T05:38:06;6.70;;;4.45;;
55933;SDS011;41839;41.386;2.082;2022-07-29T05:40:31;6.25;;;4.45;;
55933;SDS011;41839;41.386;2.082;2022-07-29T05:42:57;7.47;;;5.28;;
55933;SDS011;41839;41.386;2.082;2022-07-29T05:45:22;4.82;;;4.40;;
55933;SDS011;41839;41.386;2.082;2022-07-29T05:47:49;4.22;;;3.83;;
55933;SDS011;41839;41.386;2.082;2022-07-29T05:50:14;11.25;;;5.80;;
55933;SDS011;41839;41.386;2.082;2022-07-29T05:52:40;9.05;;;4.55;;
55933;SDS011;41839;41.386;2.082;2022-07-29T05:56:47;5.30;;;3.67;;
55933;SDS011;41839;41.386;2.082;2022-07-29T05:59:12;7.35;;;5.53;;
55933;SDS011;41839;41.386;2.082;2022-07-29T06:01:38;5.53;;;3.95;;
55933;SDS011;41839;41.386;2.082;2022-07-29T06:04:04;5.15;;;4.55;;
55933;SDS011;41839;41.386;2.082;2022-07-29T06:06:31;13.50;;;5.10;;
55933;SDS011;41839;41.386;2.082;2022-07-29T06:10:43;9.20;;;6.07;;
55933;SDS011;41839;41.386;2.082;2022-07-29T06:13:10;5.82;;;4.50;;
55933;SDS011;41839;41.386;2.082;2022-07-29T06:15:36;6.37;;;5.00;;
55933;SDS011;41839;41.386;2.082;2022-07-29T06:18:02;7.38;;;5.47;;
55933;SDS011;41839;41.386;2.082;2022-07-29T06:20:28;11.32;;;5.47;;
55933;SDS011;41839;41.386;2.082;2022-07-29T06:22:55;8.18;;;5.22;;
55933;SDS011;41839;41.386;2.082;2022-07-29T06:26:09;8.38;;;5.15;;
55933;SDS011;41839;41.386;2.082;2022-07-29T06:28:34;6.72;;;4.70;;
55933;SDS011;41839;41.386;2.082;2022-07-29T06:31:00;9.98;;;5.05;;
55933;SDS011;41839;41.386;2.082;2022-07-29T06:33:25;6.95;;;5.95;;
55933;SDS011;41839;41.386;2.082;2022-07-29T06:35:51;8.07;;;4.68;;
55933;SDS011;41839;41.386;2.082;2022-07-29T06:38:18;6.20;;;5.00;;
55933;SDS011;41839;41.386;2.082;2022-07-29T06:41:12;11.82;;;5.65;;
55933;SDS011;41839;41.386;2.082;2022-07-29T06:43:41;8.75;;;4.55;;
55933;SDS011;41839;41.386;2.082;2022-07-29T06:48:29;6.20;;;4.45;;
55933;SDS011;41839;41.386;2.082;2022-07-29T06:50:55;12.30;;;4.95;;
55933;SDS011;41839;41.386;2.082;2022-07-29T06:53:21;16.10;;;4.93;;
55933;SDS011;41839;41.386;2.082;2022-07-29T06:57:35;8.32;;;4.78;;
55933;SDS011;41839;41.386;2.082;2022-07-29T07:00:00;5.85;;;5.25;;
55933;SDS011;41839;41.386;2.082;2022-07-29T07:02:26;7.72;;;4.60;;
55933;SDS011;41839;41.386;2.082;2022-07-29T07:05:43;7.30;;;5.13;;
55933;SDS011;41839;41.386;2.082;2022-07-29T07:08:09;9.73;;;5.30;;
55933;SDS011;41839;41.386;2.082;2022-07-29T07:10:35;5.73;;;5.20;;
55933;SDS011;41839;41.386;2.082;2022-07-29T07:13:02;6.88;;;5.60;;
55933;SDS011;41839;41.386;2.082;2022-07-29T07:15:29;5.30;;;4.47;;
55933;SDS011;41839;41.386;2.082;2022-07-29T07:17:54;7.45;;;4.80;;
55933;SDS011;41839;41.386;2.082;2022-07-29T07:20:20;5.63;;;5.13;;
55933;SDS011;41839;41.386;2.082;2022-07-29T07:22:46;12.60;;;6.17;;
55933;SDS011;41839;41.386;2.082;2022-07-29T07:25:12;11.82;;;5.07;;
55933;SDS011;41839;41.386;2.082;2022-07-29T07:27:37;8.25;;;5.75;;
55933;SDS011;41839;41.386;2.082;2022-07-29T07:30:04;6.43;;;5.90;;
55933;SDS011;41839;41.386;2.082;2022-07-29T07:32:31;9.05;;;5.43;;
55933;SDS011;41839;41.386;2.082;2022-07-29T07:34:57;7.30;;;5.25;;
55933;SDS011;41839;41.386;2.082;2022-07-29T07:37:24;8.40;;;6.20;;
55933;SDS011;41839;41.386;2.082;2022-07-29T07:39:50;8.00;;;5.53;;
55933;SDS011;41839;41.386;2.082;2022-07-29T07:42:16;8.43;;;6.10;;
55933;SDS011;41839;41.386;2.082;2022-07-29T07:44:42;15.70;;;6.90;;
55933;SDS011;41839;41.386;2.082;2022-07-29T07:47:08;6.13;;;5.63;;
55933;SDS011;41839;41.386;2.082;2022-07-29T07:49:33;8.17;;;6.20;;
55933;SDS011;41839;41.386;2.082;2022-07-29T07:51:59;11.18;;;7.28;;
55933;SDS011;41839;41.386;2.082;2022-07-29T07:54:24;12.50;;;7.17;;
55933;SDS011;41839;41.386;2.082;2022-07-29T07:56:50;6.03;;;5.63;;
55933;SDS011;41839;41.386;2.082;2022-07-29T07:59:16;7.43;;;4.93;;
55933;SDS011;41839;41.386;2.082;2022-07-29T08:01:42;6.78;;;4.63;;
55933;SDS011;41839;41.386;2.082;2022-07-29T08:04:08;6.07;;;4.63;;
55933;SDS011;41839;41.386;2.082;2022-07-29T08:06:34;12.13;;;6.20;;
55933;SDS011;41839;41.386;2.082;2022-07-29T08:09:01;9.68;;;5.38;;
55933;SDS011;41839;41.386;2.082;2022-07-29T08:11:27;14.88;;;5.63;;
55933;SDS011;41839;41.386;2.082;2022-07-29T08:14:23;12.68;;;4.97;;
55933;SDS011;41839;41.386;2.082;2022-07-29T08:16:48;8.63;;;5.50;;
55933;SDS011;41839;41.386;2.082;2022-07-29T08:19:14;11.23;;;6.27;;
55933;SDS011;41839;41.386;2.082;2022-07-29T08:21:39;12.13;;;6.63;;
55933;SDS011;41839;41.386;2.082;2022-07-29T08:24:06;8.57;;;5.53;;
55933;SDS011;41839;41.386;2.082;2022-07-29T08:26:50;5.72;;;5.15;;
55933;SDS011;41839;41.386;2.082;2022-07-29T08:29:16;5.33;;;4.83;;
55933;SDS011;41839;41.386;2.082;2022-07-29T08:31:41;9.33;;;6.43;;
55933;SDS011;41839;41.386;2.082;2022-07-29T08:34:07;8.90;;;5.67;;
55933;SDS011;41839;41.386;2.082;2022-07-29T08:36:33;13.50;;;5.77;;
55933;SDS011;41839;41.386;2.082;2022-07-29T08:38:59;7.50;;;4.83;;
55933;SDS011;41839;41.386;2.082;2022-07-29T08:41:26;14.30;;;6.28;;
55933;SDS011;41839;41.386;2.082;2022-07-29T08:43:52;8.32;;;5.80;;
55933;SDS011;41839;41.386;2.082;2022-07-29T08:46:45;8.80;;;5.50;;
55933;SDS011;41839;41.386;2.082;2022-07-29T08:49:10;10.57;;;6.27;;
55933;SDS011;41839;41.386;2.082;2022-07-29T08:51:36;13.57;;;7.07;;
55933;SDS011;41839;41.386;2.082;2022-07-29T08:54:05;6.10;;;5.50;;
55933;SDS011;41839;41.386;2.082;2022-07-29T08:56:31;7.13;;;5.60;;
55933;SDS011;41839;41.386;2.082;2022-07-29T09:00:55;10.38;;;5.68;;
55933;SDS011;41839;41.386;2.082;2022-07-29T09:03:23;8.32;;;5.28;;
55933;SDS011;41839;41.386;2.082;2022-07-29T09:05:49;10.15;;;5.93;;
55933;SDS011;41839;41.386;2.082;2022-07-29T09:08:16;5.85;;;5.25;;
55933;SDS011;41839;41.386;2.082;2022-07-29T09:10:43;8.40;;;5.97;;
55933;SDS011;41839;41.386;2.082;2022-07-29T09:13:09;15.15;;;5.97;;
55933;SDS011;41839;41.386;2.082;2022-07-29T09:15:34;7.50;;;5.50;;
55933;SDS011;41839;41.386;2.082;2022-07-29T09:23:07;7.55;;;5.25;;
55933;SDS011;41839;41.386;2.082;2022-07-29T09:25:36;6.22;;;5.25;;
55933;SDS011;41839;41.386;2.082;2022-07-29T09:28:07;8.02;;;5.00;;
55933;SDS011;41839;41.386;2.082;2022-07-29T09:31:11;7.38;;;4.50;;
55933;SDS011;41839;41.386;2.082;2022-07-29T09:34:44;8.05;;;4.50;;
55933;SDS011;41839;41.386;2.082;2022-07-29T09:37:10;11.83;;;4.77;;
55933;SDS011;41839;41.386;2.082;2022-07-29T09:39:39;7.68;;;4.50;;
55933;SDS011;41839;41.386;2.082;2022-07-29T09:42:11;14.48;;;5.57;;
55933;SDS011;41839;41.386;2.082;2022-07-29T09:46:13;8.43;;;4.82;;
55933;SDS011;41839;41.386;2.082;2022-07-29T09:49:27;6.32;;;4.90;;
55933;SDS011;41839;41.386;2.082;2022-07-29T09:52:27;9.73;;;6.33;;
55933;SDS011;41839;41.386;2.082;2022-07-29T09:54:45;7.65;;;4.68;;
55933;SDS011;41839;41.386;2.082;2022-07-29T09:57:21;6.63;;;4.77;;
55933;SDS011;41839;41.386;2.082;2022-07-29T09:59:58;9.98;;;5.03;;
55933;SDS011;41839;41.386;2.082;2022-07-29T10:02:30;13.27;;;5.05;;
55933;SDS011;41839;41.386;2.082;2022-07-29T10:07:03;9.23;;;5.10;;
55933;SDS011;41839;41.386;2.082;2022-07-29T10:09:30;4.57;;;4.25;;
55933;SDS011;41839;41.386;2.082;2022-07-29T10:12:03;11.23;;;5.03;;
55933;SDS011;41839;41.386;2.082;2022-07-29T10:14:34;4.90;;;4.53;;
55933;SDS011;41839;41.386;2.082;2022-07-29T10:17:00;5.68;;;4.10;;
55933;SDS011;41839;41.386;2.082;2022-07-29T10:19:28;6.88;;;5.70;;
55933;SDS011;41839;41.386;2.082;2022-07-29T10:21:56;5.45;;;4.55;;
55933;SDS011;41839;41.386;2.082;2022-07-29T10:24:28;6.10;;;4.20;;
55933;SDS011;41839;41.386;2.082;2022-07-29T10:26:55;4.85;;;4.28;;
55933;SDS011;41839;41.386;2.082;2022-07-29T10:29:22;12.13;;;5.65;;
55933;SDS011;41839;41.386;2.082;2022-07-29T10:31:49;5.53;;;5.10;;
55933;SDS011;41839;41.386;2.082;2022-07-29T10:43:20;7.30;;;5.68;;
55933;SDS011;41839;41.386;2.082;2022-07-29T10:45:49;9.45;;;4.95;;
55933;SDS011;41839;41.386;2.082;2022-07-29T10:48:22;7.82;;;5.10;;
55933;SDS011;41839;41.386;2.082;2022-07-29T11:01:44;6.90;;;4.38;;
55933;SDS011;41839;41.386;2.082;2022-07-29T11:04:11;6.03;;;5.10;;
55933;SDS011;41839;41.386;2.082;2022-07-29T11:09:30;4.30;;;4.00;;
55933;SDS011;41839;41.386;2.082;2022-07-29T11:11:56;8.00;;;4.17;;
55933;SDS011;41839;41.386;2.082;2022-07-29T11:18:04;13.18;;;4.38;;
55933;SDS011;41839;41.386;2.082;2022-07-29T11:23:22;9.77;;;4.28;;
55933;SDS011;41839;41.386;2.082;2022-07-29T11:34:43;6.80;;;4.40;;
55933;SDS011;41839;41.386;2.082;2022-07-29T11:37:30;7.23;;;3.83;;
55933;SDS011;41839;41.386;2.082;2022-07-29T11:39:44;8.00;;;4.28;;
55933;SDS011;41839;41.386;2.082;2022-07-29T11:44:53;3.72;;;3.38;;
55933;SDS011;41839;41.386;2.082;2022-07-29T11:47:24;14.25;;;4.30;;
55933;SDS011;41839;41.386;2.082;2022-07-29T11:49:51;5.55;;;3.28;;
55933;SDS011;41839;41.386;2.082;2022-07-29T11:52:17;11.20;;;4.15;;
55933;SDS011;41839;41.386;2.082;2022-07-29T11:54:44;7.88;;;4.05;;
55933;SDS011;41839;41.386;2.082;2022-07-29T11:57:12;7.63;;;4.65;;
55933;SDS011;41839;41.386;2.082;2022-07-29T11:59:41;5.97;;;3.63;;
55933;SDS011;41839;41.386;2.082;2022-07-29T12:02:08;7.07;;;3.53;;
55933;SDS011;41839;41.386;2.082;2022-07-29T12:04:56;6.65;;;3.22;;
55933;SDS011;41839;41.386;2.082;2022-07-29T12:07:28;10.07;;;3.45;;
55933;SDS011;41839;41.386;2.082;2022-07-29T12:09:56;9.48;;;3.67;;
55933;SDS011;41839;41.386;2.082;2022-07-29T12:14:33;14.00;;;4.15;;
55933;SDS011;41839;41.386;2.082;2022-07-29T12:16:59;6.23;;;3.73;;
55933;SDS011;41839;41.386;2.082;2022-07-29T12:19:28;6.63;;;2.47;;
55933;SDS011;41839;41.386;2.082;2022-07-29T12:21:54;9.07;;;3.58;;
55933;SDS011;41839;41.386;2.082;2022-07-29T12:24:23;13.15;;;3.30;;
55933;SDS011;41839;41.386;2.082;2022-07-29T12:29:03;5.88;;;4.00;;
55933;SDS011;41839;41.386;2.082;2022-07-29T12:31:29;4.60;;;2.97;;
55933;SDS011;41839;41.386;2.082;2022-07-29T12:33:54;5.17;;;3.00;;
55933;SDS011;41839;41.386;2.082;2022-07-29T12:36:20;7.77;;;3.30;;
55933;SDS011;41839;41.386;2.082;2022-07-29T12:38:46;10.37;;;2.63;;
55933;SDS011;41839;41.386;2.082;2022-07-29T12:41:11;9.87;;;3.47;;
55933;SDS011;41839;41.386;2.082;2022-07-29T12:43:37;4.30;;;2.60;;
55933;SDS011;41839;41.386;2.082;2022-07-29T12:46:16;6.55;;;2.63;;
55933;SDS011;41839;41.386;2.082;2022-07-29T12:48:43;3.40;;;3.10;;
55933;SDS011;41839;41.386;2.082;2022-07-29T12:53:36;15.38;;;3.17;;
55933;SDS011;41839;41.386;2.082;2022-07-29T12:56:02;5.20;;;3.67;;
55933;SDS011;41839;41.386;2.082;2022-07-29T12:58:36;9.48;;;3.15;;
55933;SDS011;41839;41.386;2.082;2022-07-29T13:01:14;6.68;;;3.10;;
55933;SDS011;41839;41.386;2.082;2022-07-29T13:03:55;4.43;;;3.17;;
55933;SDS011;41839;41.386;2.082;2022-07-29T13:11:48;8.55;;;2.67;;
55933;SDS011;41839;41.386;2.082;2022-07-29T13:14:31;9.32;;;3.88;;
55933;SDS011;41839;41.386;2.082;2022-07-29T13:17:08;7.95;;;3.65;;
55933;SDS011;41839;41.386;2.082;2022-07-29T13:19:39;9.68;;;4.10;;
55933;SDS011;41839;41.386;2.082;2022-07-29T13:22:07;6.65;;;3.45;;
55933;SDS011;41839;41.386;2.082;2022-07-29T13:27:19;4.97;;;2.78;;
55933;SDS011;41839;41.386;2.082;2022-07-29T13:29:55;4.55;;;3.08;;
55933;SDS011;41839;41.386;2.082;2022-07-29T13:32:23;6.50;;;3.15;;
55933;SDS011;41839;41.386;2.082;2022-07-29T13:34:49;5.78;;;2.95;;
55933;SDS011;41839;41.386;2.082;2022-07-29T13:37:14;5.63;;;4.10;;
55933;SDS011;41839;41.386;2.082;2022-07-29T13:39:41;4.80;;;2.90;;
55933;SDS011;41839;41.386;2.082;2022-07-29T13:42:08;5.20;;;3.10;;
55933;SDS011;41839;41.386;2.082;2022-07-29T13:44:34;5.85;;;2.63;;
55933;SDS011;41839;41.386;2.082;2022-07-29T13:47:00;4.72;;;3.80;;
55933;SDS011;41839;41.386;2.082;2022-07-29T13:49:26;2.87;;;2.57;;
55933;SDS011;41839;41.386;2.082;2022-07-29T13:51:52;4.93;;;2.87;;
55933;SDS011;41839;41.386;2.082;2022-07-29T13:56:00;5.32;;;3.88;;
55933;SDS011;41839;41.386;2.082;2022-07-29T13:58:26;4.80;;;2.63;;
55933;SDS011;41839;41.386;2.082;2022-07-29T14:00:51;10.77;;;3.07;;
55933;SDS011;41839;41.386;2.082;2022-07-29T14:03:18;7.47;;;4.37;;
55933;SDS011;41839;41.386;2.082;2022-07-29T14:05:43;6.75;;;2.83;;
55933;SDS011;41839;41.386;2.082;2022-07-29T14:08:09;5.03;;;3.42;;
55933;SDS011;41839;41.386;2.082;2022-07-29T14:10:34;3.92;;;2.45;;
55933;SDS011;41839;41.386;2.082;2022-07-29T14:13:00;3.65;;;3.10;;
55933;SDS011;41839;41.386;2.082;2022-07-29T14:15:26;7.60;;;3.05;;
55933;SDS011;41839;41.386;2.082;2022-07-29T14:17:51;7.95;;;2.83;;
55933;SDS011;41839;41.386;2.082;2022-07-29T14:20:18;8.75;;;3.08;;
55933;SDS011;41839;41.386;2.082;2022-07-29T14:22:44;9.25;;;3.35;;
55933;SDS011;41839;41.386;2.082;2022-07-29T14:25:09;10.88;;;3.90;;
55933;SDS011;41839;41.386;2.082;2022-07-29T14:27:35;7.25;;;3.10;;
55933;SDS011;41839;41.386;2.082;2022-07-29T14:30:00;8.27;;;2.78;;
55933;SDS011;41839;41.386;2.082;2022-07-29T14:32:26;5.85;;;3.38;;
55933;SDS011;41839;41.386;2.082;2022-07-29T14:34:51;4.65;;;3.58;;
55933;SDS011;41839;41.386;2.082;2022-07-29T14:37:17;2.92;;;2.70;;
55933;SDS011;41839;41.386;2.082;2022-07-29T14:39:42;3.15;;;2.90;;
55933;SDS011;41839;41.386;2.082;2022-07-29T14:42:08;10.25;;;3.15;;
55933;SDS011;41839;41.386;2.082;2022-07-29T14:44:34;6.90;;;3.10;;
55933;SDS011;41839;41.386;2.082;2022-07-29T14:46:59;5.43;;;3.05;;
55933;SDS011;41839;41.386;2.082;2022-07-29T14:49:26;4.27;;;3.50;;
55933;SDS011;41839;41.386;2.082;2022-07-29T14:51:51;4.25;;;2.42;;
55933;SDS011;41839;41.386;2.082;2022-07-29T14:54:17;4.07;;;2.55;;
55933;SDS011;41839;41.386;2.082;2022-07-29T14:56:44;4.55;;;2.40;;
55933;SDS011;41839;41.386;2.082;2022-07-29T14:59:10;5.00;;;3.47;;
55933;SDS011;41839;41.386;2.082;2022-07-29T15:01:35;3.95;;;3.20;;
55933;SDS011;41839;41.386;2.082;2022-07-29T15:04:01;3.78;;;2.60;;
55933;SDS011;41839;41.386;2.082;2022-07-29T15:06:27;3.63;;;2.83;;
55933;SDS011;41839;41.386;2.082;2022-07-29T15:08:52;4.90;;;2.60;;
55933;SDS011;41839;41.386;2.082;2022-07-29T15:11:18;3.40;;;3.10;;
55933;SDS011;41839;41.386;2.082;2022-07-29T15:13:44;4.63;;;2.30;;
55933;SDS011;41839;41.386;2.082;2022-07-29T15:17:05;11.80;;;4.00;;
55933;SDS011;41839;41.386;2.082;2022-07-29T15:19:30;4.97;;;3.08;;
55933;SDS011;41839;41.386;2.082;2022-07-29T15:21:56;13.13;;;3.20;;
55933;SDS011;41839;41.386;2.082;2022-07-29T15:24:21;2.57;;;2.37;;
55933;SDS011;41839;41.386;2.082;2022-07-29T15:26:47;4.78;;;3.85;;
55933;SDS011;41839;41.386;2.082;2022-07-29T15:29:13;11.97;;;2.90;;
55933;SDS011;41839;41.386;2.082;2022-07-29T15:31:39;6.47;;;2.50;;
55933;SDS011;41839;41.386;2.082;2022-07-29T15:34:04;6.47;;;4.63;;
55933;SDS011;41839;41.386;2.082;2022-07-29T15:36:30;3.33;;;3.03;;
55933;SDS011;41839;41.386;2.082;2022-07-29T15:38:55;5.85;;;2.92;;
55933;SDS011;41839;41.386;2.082;2022-07-29T15:41:21;7.30;;;2.37;;
55933;SDS011;41839;41.386;2.082;2022-07-29T15:43:47;3.47;;;3.17;;
55933;SDS011;41839;41.386;2.082;2022-07-29T15:46:13;5.13;;;2.17;;
55933;SDS011;41839;41.386;2.082;2022-07-29T15:48:58;4.68;;;2.58;;
55933;SDS011;41839;41.386;2.082;2022-07-29T15:51:24;5.82;;;3.00;;
55933;SDS011;41839;41.386;2.082;2022-07-29T15:53:50;8.55;;;2.72;;
55933;SDS011;41839;41.386;2.082;2022-07-29T15:56:15;4.37;;;2.63;;
55933;SDS011;41839;41.386;2.082;2022-07-29T15:58:41;6.50;;;3.20;;
55933;SDS011;41839;41.386;2.082;2022-07-29T16:01:07;11.38;;;2.50;;
55933;SDS011;41839;41.386;2.082;2022-07-29T16:03:33;4.23;;;2.80;;
55933;SDS011;41839;41.386;2.082;2022-07-29T16:05:58;2.87;;;2.23;;
55933;SDS011;41839;41.386;2.082;2022-07-29T16:08:24;4.03;;;2.50;;
55933;SDS011;41839;41.386;2.082;2022-07-29T16:10:49;2.50;;;2.05;;
55933;SDS011;41839;41.386;2.082;2022-07-29T16:13:27;3.53;;;2.05;;
55933;SDS011;41839;41.386;2.082;2022-07-29T16:15:52;3.45;;;2.40;;
55933;SDS011;41839;41.386;2.082;2022-07-29T16:18:18;2.60;;;2.40;;
55933;SDS011;41839;41.386;2.082;2022-07-29T16:20:43;3.83;;;2.10;;
55933;SDS011;41839;41.386;2.082;2022-07-29T16:23:08;4.28;;;2.58;;
55933;SDS011;41839;41.386;2.082;2022-07-29T16:25:37;12.38;;;3.88;;
55933;SDS011;41839;41.386;2.082;2022-07-29T16:28:02;2.67;;;2.47;;
55933;SDS011;41839;41.386;2.082;2022-07-29T16:30:28;2.85;;;2.45;;
55933;SDS011;41839;41.386;2.082;2022-07-29T16:32:54;2.30;;;2.10;;
55933;SDS011;41839;41.386;2.082;2022-07-29T16:35:19;5.35;;;3.88;;
55933;SDS011;41839;41.386;2.082;2022-07-29T16:37:44;3.30;;;2.60;;
55933;SDS011;41839;41.386;2.082;2022-07-29T16:40:10;7.70;;;4.05;;
55933;SDS011;41839;41.386;2.082;2022-07-29T16:42:36;5.82;;;2.70;;
55933;SDS011;41839;41.386;2.082;2022-07-29T16:45:02;8.30;;;3.38;;
55933;SDS011;41839;41.386;2.082;2022-07-29T16:47:28;8.23;;;3.25;;